createdAt,value
2023-05-21T00:00:30.346Z,100625.60
2023-05-21T00:03:19.209Z,100625.98
2023-05-21T00:05:50.576Z,100627.33
2023-05-21T00:08:19.532Z,100628.95
2023-05-21T00:10:49.659Z,100628.07
2023-05-21T00:13:18.551Z,100626.88
2023-05-21T00:15:47.632Z,100630.08
2023-05-21T00:18:17.074Z,100626.58
2023-05-21T00:20:46.332Z,100627.83
2023-05-21T00:23:18.617Z,100622.33
2023-05-21T00:25:47.500Z,100621.86
2023-05-21T00:28:16.637Z,100625.02
2023-05-21T00:30:46.514Z,100622.60
2023-05-21T00:33:15.598Z,100619.27
2023-05-21T00:35:45.632Z,100616.31
2023-05-21T00:38:14.929Z,100616.68
2023-05-21T00:40:43.912Z,100617.40
2023-05-21T00:43:14.746Z,100618.58
2023-05-21T00:45:45.219Z,100620.02
2023-05-21T00:48:15.189Z,100621.23
2023-05-21T00:50:45.517Z,100622.41
2023-05-21T00:53:15.804Z,100622.77
2023-05-21T00:55:44.701Z,100619.66
2023-05-21T00:58:14.655Z,100618.19
2023-05-21T01:00:43.349Z,100622.23
2023-05-21T01:03:13.162Z,100614.17
2023-05-21T01:05:45.534Z,100611.47
2023-05-21T01:08:15.525Z,100613.04
2023-05-21T01:10:45.053Z,100611.21
2023-05-21T01:13:16.962Z,100613.30
2023-05-21T01:15:47.329Z,100610.73
2023-05-21T01:18:16.832Z,100607.65
2023-05-21T01:20:48.542Z,100603.43
2023-05-21T01:23:18.730Z,100602.61
2023-05-21T01:25:48.004Z,100599.79
2023-05-21T01:28:16.798Z,100598.14
2023-05-21T01:30:45.690Z,100595.27
2023-05-21T01:33:19.122Z,100594.85
2023-05-21T01:36:16.348Z,100592.30
2023-05-21T01:39:04.426Z,100598.25
2023-05-21T01:41:38.118Z,100594.17
2023-05-21T01:44:07.594Z,100587.75
2023-05-21T01:46:37.214Z,100591.30
2023-05-21T01:49:07.309Z,100590.73
2023-05-21T01:51:36.937Z,100591.61
2023-05-21T01:54:06.616Z,100591.83
2023-05-21T01:56:37.783Z,100585.84
2023-05-21T01:59:06.669Z,100588.16
2023-05-21T02:01:35.619Z,100595.13
2023-05-21T02:04:05.381Z,100594.91
2023-05-21T02:06:36.390Z,100596.34
2023-05-21T02:09:05.484Z,100595.43
2023-05-21T02:11:36.509Z,100593.38
2023-05-21T02:14:05.957Z,100592.44
2023-05-21T02:16:35.394Z,100593.69
2023-05-21T02:19:05.642Z,100598.20
2023-05-21T02:21:34.479Z,100599.13
2023-05-21T02:24:03.652Z,100597.04
2023-05-21T02:26:32.769Z,100594.68
2023-05-21T02:29:01.638Z,100592.77
2023-05-21T02:31:30.536Z,100589.77
2023-05-21T02:33:59.458Z,100589.89
2023-05-21T02:36:29.318Z,100587.65
2023-05-21T02:38:58.435Z,100587.66
2023-05-21T02:41:27.647Z,100590.52
2023-05-21T02:43:56.825Z,100585.75
2023-05-21T02:46:26.117Z,100587.27
2023-05-21T02:48:55.536Z,100579.83
2023-05-21T02:51:24.726Z,100576.49
2023-05-21T02:53:54.154Z,100576.93
2023-05-21T02:56:23.033Z,100575.83
2023-05-21T02:58:52.840Z,100569.44
2023-05-21T03:01:21.667Z,100570.45
2023-05-21T03:03:50.852Z,100569.48
2023-05-21T03:06:20.179Z,100569.70
2023-05-21T03:08:49.108Z,100569.65
2023-05-21T03:11:19.960Z,100568.89
2023-05-21T03:13:49.040Z,100570.19
2023-05-21T03:16:18.287Z,100568.95
2023-05-21T03:18:47.892Z,100569.55
2023-05-21T03:21:16.850Z,100571.32
2023-05-21T03:23:45.742Z,100571.95
2023-05-21T03:26:14.835Z,100568.89
2023-05-21T03:28:44.424Z,100566.50
2023-05-21T03:31:13.217Z,100567.99
2023-05-21T03:33:54.390Z,100568.62
2023-05-21T03:36:25.952Z,100569.55
2023-05-21T03:38:54.771Z,100568.02
2023-05-21T03:41:24.356Z,100565.48
2023-05-21T03:43:57.255Z,100564.15
2023-05-21T03:46:30.297Z,100563.84
2023-05-21T03:49:09.654Z,100562.60
2023-05-21T03:51:40.191Z,100566.45
2023-05-21T03:54:09.401Z,100567.32
2023-05-21T03:56:38.700Z,100573.33
2023-05-21T03:59:07.391Z,100571.73
2023-05-21T04:01:36.773Z,100573.51
2023-05-21T04:04:06.713Z,100572.74
2023-05-21T04:06:35.599Z,100573.30
2023-05-21T04:09:05.606Z,100572.56
2023-05-21T04:11:34.499Z,100571.67
2023-05-21T04:14:03.497Z,100571.05
2023-05-21T04:16:35.532Z,100568.37
2023-05-21T04:19:07.124Z,100570.73
2023-05-21T04:21:36.914Z,100566.46
2023-05-21T04:24:06.136Z,100562.70
2023-05-21T04:27:01.817Z,100565.14
2023-05-21T04:29:31.952Z,100563.45
2023-05-21T04:32:01.072Z,100563.22
2023-05-21T04:34:30.354Z,100565.53
2023-05-21T04:36:59.133Z,100564.00
2023-05-21T04:39:29.549Z,100563.92
2023-05-21T04:41:58.454Z,100565.45
2023-05-21T04:44:28.373Z,100566.66
2023-05-21T04:46:58.002Z,100568.81
2023-05-21T04:49:27.380Z,100564.42
2023-05-21T04:51:57.206Z,100567.96
2023-05-21T04:54:26.198Z,100570.33
2023-05-21T04:56:55.575Z,100573.81
2023-05-21T04:59:24.672Z,100576.86
2023-05-21T05:01:54.593Z,100570.73
2023-05-21T05:04:24.019Z,100570.48
2023-05-21T05:06:53.101Z,100571.32
2023-05-21T05:09:25.366Z,100578.05
2023-05-21T05:11:54.783Z,100580.29
2023-05-21T05:14:23.549Z,100578.35
2023-05-21T05:16:52.535Z,100576.45
2023-05-21T05:19:21.784Z,100577.75
2023-05-21T05:21:50.835Z,100576.84
2023-05-21T05:24:20.230Z,100576.42
2023-05-21T05:26:49.756Z,100572.66
2023-05-21T05:29:18.833Z,100571.05
2023-05-21T05:31:48.688Z,100562.11
2023-05-21T05:34:17.685Z,100567.88
2023-05-21T05:36:46.734Z,100558.29
2023-05-21T05:39:15.625Z,100554.99
2023-05-21T05:41:44.624Z,100557.89
2023-05-21T05:44:13.499Z,100560.44
2023-05-21T05:46:42.635Z,100563.93
2023-05-21T05:49:11.899Z,100562.20
2023-05-21T05:51:42.022Z,100564.19
2023-05-21T05:54:10.899Z,100559.23
2023-05-21T05:56:40.506Z,100557.77
2023-05-21T05:59:09.633Z,100558.06
2023-05-21T06:01:40.436Z,100557.50
2023-05-21T06:04:09.233Z,100553.80
2023-05-21T06:06:38.233Z,100552.94
2023-05-21T06:09:07.537Z,100553.14
2023-05-21T06:11:37.032Z,100550.02
2023-05-21T06:14:05.929Z,100549.88
2023-05-21T06:16:35.793Z,100547.44
2023-05-21T06:19:05.367Z,100553.73
2023-05-21T06:21:34.739Z,100555.69
2023-05-21T06:24:06.368Z,100546.60
2023-05-21T06:26:35.392Z,100544.41
2023-05-21T06:29:04.906Z,100547.14
2023-05-21T06:31:34.612Z,100540.05
2023-05-21T06:34:05.662Z,100539.35
2023-05-21T06:36:35.559Z,100536.28
2023-05-21T06:39:04.800Z,100537.12
2023-05-21T06:41:34.170Z,100539.34
2023-05-21T06:44:07.249Z,100538.31
2023-05-21T06:47:01.051Z,100537.63
2023-05-21T06:49:30.242Z,100534.40
2023-05-21T06:51:59.234Z,100536.43
2023-05-21T06:54:29.634Z,100538.61
2023-05-21T06:56:58.873Z,100536.57
2023-05-21T06:59:27.735Z,100533.48
2023-05-21T07:01:57.380Z,100531.29
2023-05-21T07:04:26.410Z,100527.45
2023-05-21T07:06:56.656Z,100522.84
2023-05-21T07:09:26.508Z,100522.59
2023-05-21T07:11:55.691Z,100524.64
2023-05-21T07:14:27.183Z,100523.09
2023-05-21T07:16:56.271Z,100526.10
2023-05-21T07:19:25.046Z,100531.60
2023-05-21T07:21:53.776Z,100531.39
2023-05-21T07:24:22.975Z,100526.13
2023-05-21T07:26:52.526Z,100531.02
2023-05-21T07:29:22.252Z,100531.81
2023-05-21T07:31:51.507Z,100529.13
2023-05-21T07:34:22.546Z,100527.27
2023-05-21T07:36:51.450Z,100526.30
2023-05-21T07:39:21.451Z,100524.86
2023-05-21T07:41:51.471Z,100524.58
2023-05-21T07:44:21.393Z,100523.81
2023-05-21T07:46:52.327Z,100522.96
2023-05-21T07:49:23.698Z,100524.39
2023-05-21T07:51:55.758Z,100521.85
2023-05-21T07:54:25.853Z,100526.20
2023-05-21T07:56:58.973Z,100528.59
2023-05-21T07:59:48.858Z,100520.78
2023-05-21T08:02:19.123Z,100518.73
2023-05-21T08:04:50.685Z,100520.67
2023-05-21T08:07:20.722Z,100517.49
2023-05-21T08:09:52.121Z,100520.59
2023-05-21T08:12:21.266Z,100519.23
2023-05-21T08:14:51.918Z,100517.52
2023-05-21T08:17:21.325Z,100518.21
2023-05-21T08:19:51.437Z,100517.25
2023-05-21T08:22:20.834Z,100516.51
2023-05-21T08:24:51.772Z,100518.65
2023-05-21T08:27:22.577Z,100517.69
2023-05-21T08:29:51.585Z,100515.55
2023-05-21T08:32:23.504Z,100514.70
2023-05-21T08:34:54.182Z,100512.70
2023-05-21T08:37:35.329Z,100513.12
2023-05-21T08:40:20.254Z,100513.86
2023-05-21T08:42:50.852Z,100515.36
2023-05-21T08:45:38.814Z,100512.09
2023-05-21T08:48:09.935Z,100513.17
2023-05-21T08:50:39.360Z,100509.69
2023-05-21T08:53:24.132Z,100516.16
2023-05-21T08:55:58.048Z,100509.07
2023-05-21T08:58:34.902Z,100502.79
2023-05-21T09:01:06.690Z,100504.96
2023-05-21T09:03:39.903Z,100501.11
2023-05-21T09:06:12.514Z,100504.49
2023-05-21T09:08:46.475Z,100502.91
2023-05-21T09:11:39.290Z,100503.27
2023-05-21T09:14:09.819Z,100503.50
2023-05-21T09:17:03.447Z,100506.07
2023-05-21T09:19:33.121Z,100497.89
2023-05-21T09:22:04.199Z,100498.78
2023-05-21T09:24:36.054Z,100497.66
2023-05-21T09:27:08.970Z,100492.64
2023-05-21T09:29:38.726Z,100488.02
2023-05-21T09:32:10.447Z,100494.39
2023-05-21T09:34:41.893Z,100485.55
2023-05-21T09:37:23.704Z,100481.79
2023-05-21T09:39:56.363Z,100483.40
2023-05-21T09:42:25.047Z,100485.94
2023-05-21T09:44:54.089Z,100484.88
2023-05-21T09:47:23.266Z,100482.55
2023-05-21T09:49:52.331Z,100486.80
2023-05-21T09:52:26.302Z,100485.90
2023-05-21T09:54:55.451Z,100482.71
2023-05-21T09:57:25.954Z,100476.16
2023-05-21T09:59:54.982Z,100475.01
2023-05-21T10:02:24.999Z,100473.58
2023-05-21T10:04:56.730Z,100471.14
2023-05-21T10:07:26.674Z,100469.77
2023-05-21T10:09:57.395Z,100465.77
2023-05-21T10:12:26.599Z,100461.68
2023-05-21T10:15:04.492Z,100461.77
2023-05-21T10:17:33.535Z,100458.70
2023-05-21T10:20:03.951Z,100454.80
2023-05-21T10:22:33.192Z,100452.27
2023-05-21T10:25:04.079Z,100448.68
2023-05-21T10:27:33.138Z,100451.80
2023-05-21T10:30:03.060Z,100449.16
2023-05-21T10:32:32.566Z,100449.98
2023-05-21T10:35:02.979Z,100452.23
2023-05-21T10:37:32.070Z,100447.18
2023-05-21T10:40:01.271Z,100440.20
2023-05-21T10:42:33.636Z,100441.50
2023-05-21T10:45:21.071Z,100437.90
2023-05-21T10:48:05.859Z,100437.48
2023-05-21T10:51:05.349Z,100434.00
2023-05-21T10:54:05.828Z,100435.98
2023-05-21T10:56:43.694Z,100432.58
2023-05-21T10:59:22.554Z,100431.36
2023-05-21T11:01:53.797Z,100438.81
2023-05-21T11:04:24.223Z,100436.13
2023-05-21T11:06:53.408Z,100429.66
2023-05-21T11:09:22.472Z,100428.48
2023-05-21T11:11:52.888Z,100424.95
2023-05-21T11:14:37.257Z,100426.09
2023-05-21T11:17:16.754Z,100423.14
2023-05-21T11:19:48.657Z,100425.52
2023-05-21T11:22:22.537Z,100423.73
2023-05-21T11:24:52.880Z,100421.56
2023-05-21T11:27:32.415Z,100420.59
2023-05-21T11:30:11.490Z,100415.99
2023-05-21T11:32:41.676Z,100414.36
2023-05-21T11:35:14.654Z,100407.31
2023-05-21T11:37:46.614Z,100403.92
2023-05-21T11:40:26.434Z,100404.73
2023-05-21T11:42:56.674Z,100404.45
2023-05-21T11:45:31.844Z,100404.09
2023-05-21T11:48:01.491Z,100399.66
2023-05-21T11:50:32.472Z,100397.66
2023-05-21T11:53:01.155Z,100403.11
2023-05-21T11:55:30.653Z,100399.48
2023-05-21T11:57:59.694Z,100396.14
2023-05-21T12:00:28.560Z,100391.45
2023-05-21T12:02:58.077Z,100387.09
2023-05-21T12:05:27.759Z,100390.50
2023-05-21T12:07:57.074Z,100392.25
2023-05-21T12:10:26.055Z,100388.62
2023-05-21T12:12:57.492Z,100390.05
2023-05-21T12:15:27.780Z,100388.33
2023-05-21T12:17:58.152Z,100386.30
2023-05-21T12:20:28.800Z,100384.19
2023-05-21T12:22:58.185Z,100382.98
2023-05-21T12:25:28.301Z,100382.58
2023-05-21T12:27:59.119Z,100383.09
2023-05-21T12:30:29.041Z,100380.86
2023-05-21T12:33:00.938Z,100379.30
2023-05-21T12:35:31.184Z,100383.55
2023-05-21T12:38:04.230Z,100384.02
2023-05-21T12:40:40.695Z,100382.20
2023-05-21T12:43:09.908Z,100381.97
2023-05-21T12:45:40.028Z,100383.15
2023-05-21T12:48:09.340Z,100384.66
2023-05-21T12:50:42.497Z,100381.81
2023-05-21T12:53:12.644Z,100384.40
2023-05-21T12:55:41.718Z,100382.45
2023-05-21T12:58:14.618Z,100378.55
2023-05-21T13:00:44.404Z,100378.72
2023-05-21T13:03:14.777Z,100380.85
2023-05-21T13:05:43.721Z,100380.54
2023-05-21T13:08:14.876Z,100374.11
2023-05-21T13:10:43.958Z,100370.42
2023-05-21T13:13:12.954Z,100375.25
2023-05-21T13:15:42.078Z,100375.81
2023-05-21T13:18:12.722Z,100375.73
2023-05-21T13:20:41.887Z,100373.30
2023-05-21T13:23:11.831Z,100370.72
2023-05-21T13:25:41.128Z,100368.23
2023-05-21T13:28:11.025Z,100367.46
2023-05-21T13:30:40.279Z,100363.44
2023-05-21T13:33:09.815Z,100359.91
2023-05-21T13:35:39.316Z,100366.29
2023-05-21T13:38:08.134Z,100366.08
2023-05-21T13:40:38.882Z,100361.86
2023-05-21T13:43:08.053Z,100358.05
2023-05-21T13:45:37.236Z,100360.58
2023-05-21T13:48:07.441Z,100358.39
2023-05-21T13:50:36.775Z,100358.33
2023-05-21T13:53:05.894Z,100352.83
2023-05-21T13:55:34.945Z,100359.52
2023-05-21T13:58:04.476Z,100356.29
2023-05-21T14:00:33.678Z,100358.02
2023-05-21T14:03:02.764Z,100353.92
2023-05-21T14:05:31.757Z,100351.17
2023-05-21T14:08:00.624Z,100351.17
2023-05-21T14:10:29.718Z,100351.63
2023-05-21T14:13:07.498Z,100351.70
2023-05-21T14:15:45.242Z,100349.80
2023-05-21T14:18:14.002Z,100350.75
2023-05-21T14:20:43.015Z,100346.40
2023-05-21T14:23:12.494Z,100346.06
2023-05-21T14:25:43.337Z,100349.83
2023-05-21T14:28:12.754Z,100350.63
2023-05-21T14:30:42.254Z,100348.18
2023-05-21T14:33:14.099Z,100348.83
2023-05-21T14:35:44.754Z,100344.83
2023-05-21T14:38:14.800Z,100346.63
2023-05-21T14:40:44.096Z,100345.12
2023-05-21T14:43:13.065Z,100345.27
2023-05-21T14:45:43.077Z,100342.27
2023-05-21T14:48:12.820Z,100341.95
2023-05-21T14:50:41.770Z,100336.88
2023-05-21T14:53:12.526Z,100334.50
2023-05-21T14:55:41.918Z,100333.06
2023-05-21T14:58:11.127Z,100330.15
2023-05-21T15:00:41.849Z,100326.60
2023-05-21T15:03:10.986Z,100325.55
2023-05-21T15:05:40.141Z,100328.52
2023-05-21T15:08:11.586Z,100327.23
2023-05-21T15:10:40.766Z,100327.27
2023-05-21T15:13:09.687Z,100326.79
2023-05-21T15:15:39.026Z,100325.52
2023-05-21T15:18:08.410Z,100323.80
2023-05-21T15:20:37.568Z,100327.09
2023-05-21T15:23:16.078Z,100327.25
2023-05-21T15:25:46.607Z,100327.88
2023-05-21T15:28:15.887Z,100321.20
2023-05-21T15:30:44.507Z,100322.06
2023-05-21T15:33:13.492Z,100320.48
2023-05-21T15:35:42.800Z,100325.83
2023-05-21T15:38:12.415Z,100321.75
2023-05-21T15:40:44.387Z,100323.08
2023-05-21T15:43:13.273Z,100321.11
2023-05-21T15:45:42.700Z,100319.55
2023-05-21T15:48:13.046Z,100320.10
2023-05-21T15:50:42.222Z,100321.81
2023-05-21T15:53:11.577Z,100323.64
2023-05-21T15:55:40.476Z,100320.41
2023-05-21T15:58:09.500Z,100316.33
2023-05-21T16:00:38.469Z,100310.77
2023-05-21T16:03:07.429Z,100308.28
2023-05-21T16:05:36.702Z,100309.77
2023-05-21T16:08:06.059Z,100311.27
2023-05-21T16:10:35.261Z,100305.61
2023-05-21T16:13:04.552Z,100307.17
2023-05-21T16:15:33.533Z,100309.94
2023-05-21T16:18:02.794Z,100307.65
2023-05-21T16:20:32.969Z,100308.58
2023-05-21T16:23:01.851Z,100306.05
2023-05-21T16:25:30.961Z,100306.66
2023-05-21T16:28:00.045Z,100303.58
2023-05-21T16:30:28.818Z,100309.27
2023-05-21T16:32:58.161Z,100299.93
2023-05-21T16:35:27.232Z,100300.77
2023-05-21T16:37:57.651Z,100300.20
2023-05-21T16:40:27.250Z,100303.30
2023-05-21T16:42:56.152Z,100305.44
2023-05-21T16:45:25.251Z,100306.40
2023-05-21T16:47:54.430Z,100308.64
2023-05-21T16:50:23.632Z,100308.00
2023-05-21T16:52:52.529Z,100307.80
2023-05-21T16:55:21.514Z,100311.33
2023-05-21T16:57:50.712Z,100312.38
2023-05-21T17:00:20.939Z,100311.09
2023-05-21T17:02:50.101Z,100312.77
2023-05-21T17:05:19.135Z,100315.17
2023-05-21T17:07:48.959Z,100312.53
2023-05-21T17:10:19.599Z,100315.98
2023-05-21T17:12:48.774Z,100314.60
2023-05-21T17:15:17.961Z,100315.33
2023-05-21T17:17:47.021Z,100314.48
2023-05-21T17:20:16.378Z,100316.59
2023-05-21T17:22:47.091Z,100316.00
2023-05-21T17:25:16.097Z,100318.70
2023-05-21T17:27:45.096Z,100321.79
2023-05-21T17:30:14.181Z,100321.15
2023-05-21T17:32:44.568Z,100321.84
2023-05-21T17:35:13.715Z,100324.91
2023-05-21T17:37:42.901Z,100318.77
2023-05-21T17:40:12.198Z,100320.23
2023-05-21T17:42:41.295Z,100321.40
2023-05-21T17:45:11.232Z,100319.31
2023-05-21T17:47:40.434Z,100313.60
2023-05-21T17:50:10.542Z,100316.34
2023-05-21T17:52:40.132Z,100316.14
2023-05-21T17:55:09.956Z,100318.02
2023-05-21T17:57:38.931Z,100317.66
2023-05-21T18:00:09.466Z,100323.38
2023-05-21T18:02:41.406Z,100327.11
2023-05-21T18:05:10.466Z,100328.73
2023-05-21T18:07:40.552Z,100324.92
2023-05-21T18:10:10.042Z,100328.90
2023-05-21T18:12:39.252Z,100328.34
2023-05-21T18:15:10.171Z,100330.61
2023-05-21T18:17:39.994Z,100330.55
2023-05-21T18:20:10.107Z,100331.54
2023-05-21T18:22:40.954Z,100335.45
2023-05-21T18:25:10.673Z,100336.09
2023-05-21T18:27:39.852Z,100336.77
2023-05-21T18:30:09.803Z,100336.16
2023-05-21T18:32:40.188Z,100342.51
2023-05-21T18:35:12.410Z,100345.66
2023-05-21T18:37:45.049Z,100346.00
2023-05-21T18:40:15.282Z,100343.93
2023-05-21T18:42:43.962Z,100345.73
2023-05-21T18:45:14.171Z,100346.14
2023-05-21T18:47:43.615Z,100348.30
2023-05-21T18:50:14.525Z,100344.59
2023-05-21T18:52:43.810Z,100345.22
2023-05-21T18:55:13.447Z,100342.27
2023-05-21T18:57:42.236Z,100342.79
2023-05-21T19:00:11.935Z,100346.89
2023-05-21T19:02:41.616Z,100347.59
2023-05-21T19:05:11.564Z,100347.30
2023-05-21T19:07:42.074Z,100343.06
2023-05-21T19:10:12.949Z,100350.05
2023-05-21T19:12:44.395Z,100347.09
2023-05-21T19:15:14.064Z,100348.23
2023-05-21T19:17:43.781Z,100346.57
2023-05-21T19:20:23.476Z,100347.52
2023-05-21T19:22:53.251Z,100352.63
2023-05-21T19:25:22.983Z,100353.39
2023-05-21T19:27:53.768Z,100353.40
2023-05-21T19:30:22.767Z,100354.01
2023-05-21T19:32:52.485Z,100356.85
2023-05-21T19:35:22.938Z,100355.29
2023-05-21T19:37:52.100Z,100353.91
2023-05-21T19:40:23.375Z,100353.94
2023-05-21T19:42:52.750Z,100351.14
2023-05-21T19:45:22.996Z,100345.94
2023-05-21T19:47:52.638Z,100347.06
2023-05-21T19:50:22.319Z,100346.05
2023-05-21T19:52:51.693Z,100343.88
2023-05-21T19:55:21.276Z,100341.41
2023-05-21T19:57:50.975Z,100343.27
2023-05-21T20:00:23.214Z,100339.88
2023-05-21T20:02:53.009Z,100338.07
2023-05-21T20:05:22.286Z,100337.84
2023-05-21T20:07:51.516Z,100335.20
2023-05-21T20:10:20.683Z,100335.27
2023-05-21T20:12:49.676Z,100338.95
2023-05-21T20:15:18.995Z,100334.21
2023-05-21T20:17:50.901Z,100333.07
2023-05-21T20:20:23.415Z,100335.41
2023-05-21T20:22:52.614Z,100331.29
2023-05-21T20:25:22.308Z,100326.45
2023-05-21T20:27:51.311Z,100325.14
2023-05-21T20:30:20.609Z,100334.50
2023-05-21T20:32:50.382Z,100329.95
2023-05-21T20:35:19.638Z,100327.95
2023-05-21T20:37:49.013Z,100327.80
2023-05-21T20:40:19.802Z,100324.14
2023-05-21T20:42:51.028Z,100325.85
2023-05-21T20:45:21.351Z,100324.83
2023-05-21T20:47:50.388Z,100326.48
2023-05-21T20:50:22.127Z,100325.16
2023-05-21T20:52:52.436Z,100329.17
2023-05-21T20:55:21.809Z,100329.21
2023-05-21T20:57:51.518Z,100328.38
2023-05-21T21:00:21.198Z,100328.39
2023-05-21T21:02:50.856Z,100331.98
2023-05-21T21:05:20.552Z,100330.22
2023-05-21T21:07:49.424Z,100332.15
2023-05-21T21:10:18.923Z,100333.63
2023-05-21T21:12:48.230Z,100331.70
2023-05-21T21:15:17.323Z,100327.74
2023-05-21T21:17:46.209Z,100329.84
2023-05-21T21:20:17.790Z,100330.06
2023-05-21T21:22:46.665Z,100331.98
2023-05-21T21:25:16.844Z,100330.23
2023-05-21T21:27:45.992Z,100331.84
2023-05-21T21:30:15.141Z,100335.55
2023-05-21T21:32:44.119Z,100337.13
2023-05-21T21:35:12.979Z,100339.45
2023-05-21T21:37:41.950Z,100342.29
2023-05-21T21:40:11.288Z,100347.48
2023-05-21T21:42:40.053Z,100341.90
2023-05-21T21:45:09.867Z,100341.83
2023-05-21T21:47:38.612Z,100339.60
2023-05-21T21:50:08.573Z,100338.73
2023-05-21T21:52:41.034Z,100340.56
2023-05-21T21:55:11.039Z,100342.88
2023-05-21T21:57:40.049Z,100348.21
2023-05-21T22:00:17.952Z,100350.17
2023-05-21T22:02:47.092Z,100353.68
2023-05-21T22:05:16.320Z,100351.21
2023-05-21T22:07:48.520Z,100350.58
2023-05-21T22:10:18.434Z,100350.92
2023-05-21T22:12:47.637Z,100350.95
2023-05-21T22:15:23.458Z,100355.30
2023-05-21T22:17:52.627Z,100353.66
2023-05-21T22:20:25.719Z,100354.52
2023-05-21T22:22:55.414Z,100352.25
2023-05-21T22:25:24.971Z,100351.92
2023-05-21T22:27:53.773Z,100350.12
2023-05-21T22:30:23.157Z,100352.42
2023-05-21T22:32:52.088Z,100352.65
2023-05-21T22:35:21.043Z,100354.02
2023-05-21T22:37:49.735Z,100359.64
2023-05-21T22:40:19.134Z,100356.77
2023-05-21T22:42:47.935Z,100355.98
2023-05-21T22:45:17.216Z,100354.60
2023-05-21T22:47:46.084Z,100353.45
2023-05-21T22:50:17.163Z,100352.48
2023-05-21T22:52:45.982Z,100354.42
2023-05-21T22:55:17.060Z,100353.73
2023-05-21T22:57:45.775Z,100350.49
2023-05-21T23:00:14.907Z,100350.20
2023-05-21T23:02:43.627Z,100350.08
2023-05-21T23:05:12.914Z,100349.36
2023-05-21T23:07:41.972Z,100348.92
2023-05-21T23:10:11.271Z,100351.58
2023-05-21T23:12:41.387Z,100347.20
2023-05-21T23:15:11.076Z,100347.80
2023-05-21T23:17:40.815Z,100347.53
2023-05-21T23:20:10.405Z,100346.39
2023-05-21T23:22:39.091Z,100350.05
2023-05-21T23:25:08.895Z,100348.23
2023-05-21T23:27:38.492Z,100351.05
2023-05-21T23:30:08.168Z,100347.63
2023-05-21T23:32:37.138Z,100344.80
2023-05-21T23:35:08.106Z,100343.65
2023-05-21T23:37:36.785Z,100341.05
2023-05-21T23:40:06.647Z,100341.59
2023-05-21T23:42:36.052Z,100338.27
2023-05-21T23:45:05.035Z,100339.51
2023-05-21T23:47:35.260Z,100337.45
2023-05-21T23:50:04.756Z,100341.52
2023-05-21T23:52:33.367Z,100336.30
2023-05-21T23:55:02.571Z,100335.04
2023-05-21T23:57:31.319Z,100338.06
